This is the latest recevied weather packets stored in our database for station/object K5WNG. If no packets are shown the sender has not sent any weather packets the latest 10 day(s).
| Time | Temp. | Humidity | Pressure | Rain* | Wind** | Luminosity | Snow |
|---|---|---|---|---|---|---|---|
| 1777562420 | 17.22° C | 95% | 1012.5 hPa | 0 mm | - | 397 W/m² | - |
| 1777562120 | 17.22° C | 95% | 1012.7 hPa | 0 mm | - | 377 W/m² | - |
| 1777561821 | 16.67° C | 96% | 1012.8 hPa | 0 mm | - | 324 W/m² | - |
| 1777561521 | 16.67° C | 97% | 1013 hPa | 0 mm | - | 182 W/m² | - |
| 1777561221 | 16.67° C | 97% | 1013.2 hPa | 0 mm | - | 151 W/m² | - |
| 1777560921 | 16.11° C | 98% | 1013.2 hPa | 0 mm | - | 131 W/m² | - |
| 1777560621 | 16.11° C | 98% | 1013.2 hPa | 0 mm | - | 94 W/m² | - |
| 1777560320 | 16.11° C | 98% | 1013.3 hPa | 0 mm | - | 83 W/m² | - |
| 1777560021 | 16.11° C | 98% | 1013.4 hPa | 0 mm | - | 89 W/m² | - |
| 1777559724 | 16.11° C | 98% | 1013.4 hPa | 0 mm | - | 76 W/m² | - |
| 1777559421 | 16.11° C | 98% | 1013.3 hPa | 0 mm | - | 76 W/m² | - |
| 1777559125 | 16.11° C | 99% | 1013.4 hPa | 0 mm | - | 47 W/m² | - |
| 1777558821 | 16.11° C | 99% | 1013.5 hPa | 0 mm | - | 42 W/m² | - |
| 1777558525 | 16.11° C | 99% | 1013.6 hPa | 0 mm | - | 30 W/m² | - |
| 1777558221 | 16.11° C | 99% | 1013.6 hPa | 0 mm | - | 19 W/m² | - |
| 1777557925 | 16.11° C | 99% | 1013.3 hPa | 0 mm | - | 26 W/m² | - |
| 1777557626 | 16.11° C | 99% | 1013 hPa | 0 mm | - | 45 W/m² | - |
| 1777557321 | 16.11° C | 99% | 1012.7 hPa | 0 mm | - | 71 W/m² | - |
| 1777557025 | 16.11° C | 99% | 1012.4 hPa | 0 mm | - | 95 W/m² | - |
| 1777556722 | 16.11° C | 99% | 1012.5 hPa | 0 mm | - | 74 W/m² | - |
| 1777556424 | 15.56° C | 99% | 1012.9 hPa | 0 mm | - | 31 W/m² | - |
| 1777556122 | 15.56° C | 99% | 1012.8 hPa | 0 mm | - | 46 W/m² | - |
| 1777555822 | 15.56° C | 99% | 1012.7 hPa | 0 mm | - | 49 W/m² | - |
| 1777555525 | 15.56° C | 99% | 1013 hPa | 0 mm | - | 24 W/m² | - |
| 1777555227 | 15.56° C | 99% | 1013.1 hPa | 0 mm | - | 18 W/m² | - |
* Rain latest hour (hover to see other rain measurements)
** Current wind speed in m/s (hover to see current wind gust speed)